Time;durP1;ratioP1;P1;durP2;ratioP2;P2;SDS_P1;SDS_P2;PMS_P1;PMS_P2;Temp;Humidity;BMP_temperature;BMP_pressure;BME280_temperature;BME280_humidity;BME280_pressure;Samples;Min_cycle;Max_cycle;Signal;HPM_P1;HPM_P2
2022/03/03 00:01:10;;;;;;;52.30;32.77;;;3.70;99.90;;;;;;5055846;28;20474;-69
2022/03/03 00:03:36;;;;;;;56.17;33.90;;;3.60;1.00;;;;;;5056264;28;20455;-70
2022/03/03 00:06:03;;;;;;;52.70;32.40;;;3.60;1.00;;;;;;5056163;28;20787;-69
2022/03/03 00:08:30;;;;;;;54.97;33.80;;;3.60;99.90;;;;;;5056241;28;20474;-68
2022/03/03 00:10:59;;;;;;;53.00;32.80;;;3.60;99.90;;;;;;5056024;28;20459;-69
2022/03/03 00:13:26;;;;;;;50.87;32.50;;;3.60;99.90;;;;;;5055674;28;20459;-69
2022/03/03 00:15:54;;;;;;;52.47;32.90;;;3.60;1.00;;;;;;5055861;28;20823;-69
2022/03/03 00:18:21;;;;;;;47.97;32.20;;;3.60;99.90;;;;;;5055640;28;20621;-69
2022/03/03 00:20:47;;;;;;;46.40;30.73;;;3.70;1.00;;;;;;5055951;28;20520;-70
2022/03/03 00:23:15;;;;;;;49.43;32.00;;;3.70;1.00;;;;;;5055783;28;20572;-70
2022/03/03 00:25:42;;;;;;;53.37;33.07;;;3.60;1.00;;;;;;5055327;28;20986;-69
2022/03/03 00:28:09;;;;;;;52.00;33.43;;;3.70;1.00;;;;;;5055669;28;20455;-70
2022/03/03 00:30:35;;;;;;;48.27;31.67;;;3.70;99.90;;;;;;5055971;28;20467;-69
2022/03/03 00:33:03;;;;;;;55.30;33.93;;;3.60;6.60;;;;;;5055728;28;20494;-70
2022/03/03 00:35:30;;;;;;;61.63;34.40;;;3.60;14.30;;;;;;5055714;28;20957;-70
2022/03/03 00:37:57;;;;;;;49.20;32.40;;;3.60;95.50;;;;;;5055922;28;20459;-69
2022/03/03 00:40:23;;;;;;;48.13;32.73;;;3.60;99.90;;;;;;5055722;28;20467;-69
2022/03/03 00:42:50;;;;;;;50.77;33.37;;;3.50;99.90;;;;;;5057591;28;20479;-69
2022/03/03 00:45:17;;;;;;;53.20;32.77;;;3.50;71.50;;;;;;5060893;28;20470;-70
2022/03/03 00:47:43;;;;;;;51.20;31.60;;;3.50;1.00;;;;;;5055602;28;20930;-69
2022/03/03 00:50:12;;;;;;;108.63;53.30;;;3.40;1.00;;;;;;5055509;28;20466;-69
2022/03/03 00:52:38;;;;;;;61.97;36.63;;;3.40;1.00;;;;;;5055234;28;20463;-68
2022/03/03 00:55:06;;;;;;;45.90;30.90;;;3.40;99.90;;;;;;5055962;28;20990;-69
2022/03/03 00:57:33;;;;;;;49.77;31.30;;;3.40;1.00;;;;;;5055295;28;20815;-70
2022/03/03 00:59:59;;;;;;;51.10;32.30;;;3.30;1.00;;;;;;5055532;28;20470;-70
2022/03/03 01:02:26;;;;;;;52.00;30.80;;;3.30;1.00;;;;;;5055093;28;20764;-69
2022/03/03 01:04:53;;;;;;;51.57;32.20;;;3.30;1.00;;;;;;5055033;28;20463;-69
2022/03/03 01:07:21;;;;;;;54.17;31.87;;;3.30;1.00;;;;;;5054813;28;21077;-69
2022/03/03 01:09:48;;;;;;;51.43;32.93;;;3.40;1.00;;;;;;5054735;28;20919;-69
2022/03/03 01:12:17;;;;;;;49.37;30.90;;;3.50;1.00;;;;;;5055549;28;20485;-69
2022/03/03 01:14:47;;;;;;;46.87;30.93;;;3.50;1.00;;;;;;5055294;28;21002;-70
2022/03/03 01:17:14;;;;;;;54.63;33.00;;;3.50;1.00;;;;;;5055871;28;20461;-70
2022/03/03 01:19:41;;;;;;;43.70;30.57;;;3.50;1.00;;;;;;5054847;28;20512;-69
2022/03/03 01:22:07;;;;;;;45.07;29.87;;;3.60;1.00;;;;;;5054594;28;20536;-69
2022/03/03 01:24:37;;;;;;;47.23;30.63;;;3.60;10.90;;;;;;5054865;28;20470;-69
2022/03/03 01:27:04;;;;;;;44.13;30.33;;;3.50;1.00;;;;;;5054786;28;20475;-70
2022/03/03 01:29:31;;;;;;;49.73;30.70;;;3.50;1.00;;;;;;5054287;28;20912;-69
2022/03/03 01:31:57;;;;;;;48.43;29.97;;;3.50;1.00;;;;;;5053990;28;20558;-69
2022/03/03 01:34:24;;;;;;;55.10;30.27;;;3.40;1.00;;;;;;5054624;28;20819;-69
2022/03/03 01:36:54;;;;;;;48.10;33.10;;;3.50;1.00;;;;;;5054467;28;20746;-68
2022/03/03 01:39:20;;;;;;;49.20;31.90;;;3.50;1.00;;;;;;5054671;28;20463;-69
2022/03/03 01:41:49;;;;;;;51.87;32.03;;;3.50;1.00;;;;;;5054371;28;20482;-69
2022/03/03 01:44:15;;;;;;;50.30;30.70;;;3.50;77.70;;;;;;5054748;28;20463;-69
2022/03/03 01:46:50;;;;;;;50.43;32.53;;;3.60;99.90;;;;;;5054362;28;20771;-69
2022/03/03 01:49:17;;;;;;;49.93;32.37;;;3.60;99.90;;;;;;5054393;28;20462;-69
2022/03/03 01:51:43;;;;;;;57.03;32.10;;;3.50;99.90;;;;;;5054459;28;20454;-70
2022/03/03 01:54:10;;;;;;;49.50;32.37;;;3.50;99.90;;;;;;5054328;28;20521;-69
2022/03/03 01:56:37;;;;;;;55.30;33.83;;;3.50;99.90;;;;;;5054237;28;20459;-67
2022/03/03 01:59:05;;;;;;;57.50;35.20;;;3.40;99.90;;;;;;5054554;28;20459;-69
2022/03/03 02:01:32;;;;;;;56.23;32.80;;;3.30;99.90;;;;;;5054048;28;20455;-69
2022/03/03 02:03:59;;;;;;;47.40;31.43;;;3.20;99.90;;;;;;5054473;28;20788;-69
2022/03/03 02:06:26;;;;;;;58.80;33.13;;;3.10;99.90;;;;;;5054588;28;20487;-70
2022/03/03 02:08:53;;;;;;;53.17;32.07;;;2.90;99.90;;;;;;5054516;28;20810;-69
2022/03/03 02:11:21;;;;;;;42.83;30.83;;;2.90;99.90;;;;;;5054175;28;20790;-69
2022/03/03 02:13:48;;;;;;;46.73;29.37;;;2.80;99.90;;;;;;5055867;28;20456;-69
2022/03/03 02:16:16;;;;;;;40.33;25.80;;;2.70;99.90;;;;;;5057486;28;20529;-69
2022/03/03 02:18:43;;;;;;;41.60;25.60;;;2.60;99.90;;;;;;5057501;28;20558;-69
2022/03/03 02:21:16;;;;;;;40.17;26.20;;;2.60;99.90;;;;;;5054149;28;20456;-69
2022/03/03 02:23:43;;;;;;;38.27;24.07;;;2.50;99.90;;;;;;5054396;28;20454;-69
2022/03/03 02:26:17;;;;;;;42.83;27.03;;;2.50;99.90;;;;;;5054236;28;20544;-69
2022/03/03 02:28:44;;;;;;;38.67;25.50;;;2.50;99.90;;;;;;5054371;28;20497;-69
2022/03/03 02:31:11;;;;;;;46.10;29.07;;;2.50;99.90;;;;;;5054318;28;20455;-69
2022/03/03 02:33:38;;;;;;;39.60;25.47;;;2.50;99.90;;;;;;5054014;28;20859;-69
2022/03/03 02:36:20;;;;;;;37.37;24.07;;;2.60;99.90;;;;;;5054569;28;20459;-69
2022/03/03 02:38:47;;;;;;;37.37;22.37;;;2.60;99.90;;;;;;5054099;28;20939;-69
2022/03/03 02:41:14;;;;;;;31.90;22.20;;;2.60;99.90;;;;;;5053840;28;20880;-70
2022/03/03 02:43:44;;;;;;;34.30;22.40;;;2.60;99.90;;;;;;5056703;28;20463;-69
2022/03/03 02:46:13;;;;;;;34.43;22.70;;;2.60;99.90;;;;;;5057500;28;20549;-69
2022/03/03 02:48:40;;;;;;;34.77;20.87;;;2.60;99.90;;;;;;5057282;28;20912;-69
2022/03/03 02:51:08;;;;;;;31.03;20.13;;;2.60;99.90;;;;;;5057659;28;20459;-69
2022/03/03 02:53:39;;;;;;;33.80;21.80;;;2.60;99.90;;;;;;5057663;28;20463;-69
2022/03/03 02:56:07;;;;;;;38.57;23.90;;;2.70;99.90;;;;;;5057369;28;20439;-70
2022/03/03 02:58:34;;;;;;;33.80;21.70;;;2.70;99.90;;;;;;5057450;28;20535;-70
2022/03/03 03:01:02;;;;;;;30.83;20.60;;;2.80;99.90;;;;;;5057269;28;20459;-70
2022/03/03 03:03:29;;;;;;;32.80;20.83;;;2.80;99.90;;;;;;5057337;28;20482;-69
2022/03/03 03:05:56;;;;;;;32.00;20.43;;;2.90;99.90;;;;;;5057186;28;20451;-69
2022/03/03 03:08:22;;;;;;;32.03;21.37;;;3.00;99.90;;;;;;5057212;28;20482;-69
2022/03/03 03:10:51;;;;;;;28.70;19.80;;;3.00;99.90;;;;;;5057246;28;20478;-69
2022/03/03 03:13:17;;;;;;;29.33;18.97;;;3.00;99.90;;;;;;5057339;28;20827;-69
2022/03/03 03:15:46;;;;;;;146.80;64.63;;;3.00;99.90;;;;;;5057316;28;20856;-71
2022/03/03 03:18:14;;;;;;;33.17;20.57;;;3.00;99.90;;;;;;5056724;28;20458;-69
2022/03/03 03:20:42;;;;;;;33.30;18.60;;;3.00;99.90;;;;;;5057047;28;20467;-70
2022/03/03 03:23:10;;;;;;;29.27;18.73;;;2.90;99.90;;;;;;5057066;28;20529;-69
2022/03/03 03:25:37;;;;;;;31.33;20.87;;;2.90;99.90;;;;;;5056976;28;20835;-70
2022/03/03 03:28:06;;;;;;;34.90;21.17;;;2.80;99.90;;;;;;5056942;28;20489;-70
2022/03/03 03:30:33;;;;;;;37.67;21.60;;;2.70;99.90;;;;;;5056877;28;20504;-69
2022/03/03 03:33:00;;;;;;;29.20;19.93;;;2.60;99.90;;;;;;5056552;28;20455;-70
2022/03/03 03:35:27;;;;;;;30.43;19.67;;;2.60;99.90;;;;;;5056552;28;20946;-70
2022/03/03 03:37:54;;;;;;;31.30;20.40;;;2.50;99.90;;;;;;5056837;28;20470;-69
2022/03/03 03:40:20;;;;;;;33.80;21.17;;;2.50;99.90;;;;;;5056609;28;20920;-68
2022/03/03 03:42:47;;;;;;;23.23;17.63;;;2.30;99.90;;;;;;5056419;28;20557;-69
2022/03/03 03:45:16;;;;;;;31.77;20.00;;;2.20;99.90;;;;;;5056674;28;20842;-69
2022/03/03 03:47:43;;;;;;;30.93;19.93;;;2.20;99.90;;;;;;5056444;28;20566;-69
2022/03/03 03:50:12;;;;;;;28.50;19.13;;;2.20;99.90;;;;;;5056681;28;20741;-68
2022/03/03 03:52:41;;;;;;;29.87;20.23;;;2.20;99.90;;;;;;5056218;28;20470;-67
2022/03/03 03:55:10;;;;;;;28.83;19.33;;;2.10;99.90;;;;;;5056363;28;20463;-69
2022/03/03 03:57:36;;;;;;;29.10;18.10;;;2.00;99.90;;;;;;5056849;28;20455;-69
2022/03/03 04:00:06;;;;;;;28.20;18.83;;;1.90;99.90;;;;;;5056303;28;20785;-68
2022/03/03 04:02:34;;;;;;;29.80;17.53;;;1.90;99.90;;;;;;5056445;28;20538;-68
2022/03/03 04:05:01;;;;;;;25.97;17.00;;;1.90;99.90;;;;;;5056669;28;20922;-68
2022/03/03 04:07:27;;;;;;;31.67;19.27;;;1.90;99.90;;;;;;5056429;28;20475;-67
2022/03/03 04:09:54;;;;;;;30.43;18.63;;;1.90;99.90;;;;;;5058392;28;20454;-67
2022/03/03 04:12:21;;;;;;;29.17;18.10;;;1.90;99.90;;;;;;5058023;28;20470;-67
2022/03/03 04:14:48;;;;;;;27.20;18.40;;;1.90;99.90;;;;;;5060200;28;20455;-68
2022/03/03 04:17:14;;;;;;;29.23;19.10;;;1.90;99.90;;;;;;5058437;28;20463;-67
2022/03/03 04:19:42;;;;;;;33.43;20.00;;;1.90;99.90;;;;;;5056821;28;20459;-67
2022/03/03 04:22:09;;;;;;;28.00;20.00;;;2.00;99.90;;;;;;5056321;28;20455;-67
2022/03/03 04:24:36;;;;;;;32.93;19.80;;;2.00;99.90;;;;;;5056119;28;20459;-67
2022/03/03 04:27:04;;;;;;;31.23;19.37;;;2.00;99.90;;;;;;5056305;28;20476;-68
2022/03/03 04:29:30;;;;;;;31.67;20.23;;;2.00;99.90;;;;;;5056311;28;20904;-68
2022/03/03 04:31:58;;;;;;;28.80;19.17;;;2.00;99.90;;;;;;5055731;28;20584;-68
2022/03/03 04:34:25;;;;;;;29.37;19.50;;;2.00;99.90;;;;;;5055990;28;20561;-67
2022/03/03 04:36:53;;;;;;;30.67;20.53;;;1.90;99.90;;;;;;5055799;28;20455;-68
2022/03/03 04:39:20;;;;;;;28.60;18.23;;;1.80;99.90;;;;;;5056090;28;20483;-67
2022/03/03 04:41:47;;;;;;;30.27;19.70;;;1.80;99.90;;;;;;5055495;28;20487;-68
2022/03/03 04:44:14;;;;;;;28.43;19.00;;;1.70;99.90;;;;;;5055542;28;20455;-67
2022/03/03 04:46:40;;;;;;;30.87;18.43;;;1.70;99.90;;;;;;5056069;28;20462;-67
2022/03/03 04:49:08;;;;;;;28.60;19.73;;;1.70;99.90;;;;;;5055562;28;20459;-66
2022/03/03 04:51:36;;;;;;;33.87;19.60;;;1.60;99.90;;;;;;5055365;28;20473;-67
2022/03/03 04:54:06;;;;;;;25.03;18.20;;;1.50;99.90;;;;;;5055277;28;20832;-67
2022/03/03 04:56:32;;;;;;;28.03;18.97;;;1.50;99.90;;;;;;5055411;28;20528;-66
2022/03/03 04:59:00;;;;;;;26.40;19.10;;;1.40;99.90;;;;;;5055706;28;20804;-68
2022/03/03 05:01:26;;;;;;;30.50;19.10;;;1.30;99.90;;;;;;5055395;28;20554;-68
2022/03/03 05:03:53;;;;;;;26.80;18.43;;;1.20;99.90;;;;;;5055278;28;20459;-67
2022/03/03 05:06:20;;;;;;;32.77;18.87;;;1.20;99.90;;;;;;5054735;28;20463;-67
2022/03/03 05:08:47;;;;;;;29.33;19.47;;;1.10;99.90;;;;;;5055585;28;20491;-67
2022/03/03 05:11:15;;;;;;;29.90;18.83;;;1.10;99.90;;;;;;5055243;28;20459;-67
2022/03/03 05:13:42;;;;;;;24.77;18.60;;;1.00;99.90;;;;;;5055414;28;20462;-68
2022/03/03 05:16:11;;;;;;;33.63;20.40;;;1.00;99.90;;;;;;5055147;28;20482;-67
2022/03/03 05:18:38;;;;;;;29.70;18.90;;;0.90;99.90;;;;;;5055465;28;20456;-67
2022/03/03 05:21:05;;;;;;;29.00;20.80;;;0.90;99.90;;;;;;5055561;28;20603;-67
2022/03/03 05:23:32;;;;;;;28.03;18.80;;;0.90;99.90;;;;;;5055089;28;20455;-66
2022/03/03 05:25:58;;;;;;;41.20;24.87;;;0.90;99.90;;;;;;5055610;28;20817;-67
2022/03/03 05:28:27;;;;;;;31.50;18.67;;;0.90;99.90;;;;;;5055208;28;20570;-69
2022/03/03 05:30:53;;;;;;;30.07;18.50;;;0.90;99.90;;;;;;5055800;28;20790;-67
2022/03/03 05:33:20;;;;;;;30.33;18.03;;;0.90;99.90;;;;;;5057900;28;20808;-67
2022/03/03 05:35:49;;;;;;;27.47;17.77;;;0.90;99.90;;;;;;5057849;28;20562;-67
2022/03/03 05:38:15;;;;;;;31.83;20.10;;;0.90;99.90;;;;;;5058285;28;20451;-68
2022/03/03 05:40:42;;;;;;;29.90;20.40;;;0.80;99.90;;;;;;5059706;28;20459;-67
2022/03/03 05:43:10;;;;;;;29.57;18.67;;;0.80;99.90;;;;;;5059325;28;20903;-68
2022/03/03 05:45:39;;;;;;;47.30;28.40;;;0.90;99.90;;;;;;5058584;28;20467;-67
2022/03/03 05:48:07;;;;;;;39.90;22.33;;;0.80;99.90;;;;;;5057782;28;20997;-67
2022/03/03 05:50:34;;;;;;;32.00;19.57;;;0.90;99.90;;;;;;5057755;28;20505;-68
2022/03/03 05:53:01;;;;;;;30.13;19.57;;;0.90;99.90;;;;;;5055792;28;20914;-68
2022/03/03 05:55:30;;;;;;;31.53;19.53;;;0.90;99.90;;;;;;5055751;28;20541;-67
2022/03/03 05:57:59;;;;;;;32.17;21.03;;;0.80;99.90;;;;;;5055449;28;20461;-67
2022/03/03 06:00:28;;;;;;;33.70;20.77;;;0.70;99.90;;;;;;5055094;28;20493;-68
2022/03/03 06:02:56;;;;;;;33.37;20.37;;;0.70;99.90;;;;;;5055613;28;20779;-68
2022/03/03 06:05:26;;;;;;;32.67;20.97;;;0.70;99.90;;;;;;5055310;28;20470;-68
2022/03/03 06:07:54;;;;;;;33.17;22.07;;;0.80;99.90;;;;;;5054774;28;20509;-67
2022/03/03 06:10:24;;;;;;;33.30;20.90;;;0.80;99.90;;;;;;5055017;28;20949;-68
2022/03/03 06:12:55;;;;;;;33.27;21.07;;;0.70;99.90;;;;;;5054748;28;20465;-66
2022/03/03 06:15:23;;;;;;;31.93;19.90;;;0.70;99.90;;;;;;5055364;28;20542;-67
2022/03/03 06:17:51;;;;;;;37.27;23.60;;;0.60;99.90;;;;;;5058051;28;20546;-69
2022/03/03 06:20:19;;;;;;;36.03;21.70;;;0.60;99.90;;;;;;5058502;28;20466;-67
2022/03/03 06:22:45;;;;;;;34.93;23.87;;;0.60;99.90;;;;;;5058671;28;20501;-67
2022/03/03 06:25:13;;;;;;;31.17;20.47;;;0.50;99.90;;;;;;5058465;28;20459;-68
2022/03/03 06:27:39;;;;;;;38.17;24.00;;;0.50;99.90;;;;;;5058191;28;20489;-67
2022/03/03 06:30:08;;;;;;;37.70;22.53;;;0.50;99.90;;;;;;5058430;28;20470;-67
2022/03/03 06:32:34;;;;;;;38.17;21.90;;;0.40;99.90;;;;;;5058362;28;20455;-68
2022/03/03 06:35:03;;;;;;;34.33;22.40;;;0.40;99.90;;;;;;5058383;28;20486;-68
2022/03/03 06:37:34;;;;;;;37.43;22.73;;;0.30;99.90;;;;;;5058341;28;20482;-69
2022/03/03 06:40:00;;;;;;;35.80;23.00;;;0.30;99.90;;;;;;5059533;28;20485;-69
2022/03/03 06:42:27;;;;;;;40.57;23.80;;;0.30;99.90;;;;;;5057653;28;20860;-71
2022/03/03 06:44:54;;;;;;;45.47;25.20;;;0.30;99.90;;;;;;5058159;28;20451;-70
2022/03/03 06:47:21;;;;;;;39.40;23.47;;;0.30;99.90;;;;;;5058064;28;20534;-68
2022/03/03 06:49:49;;;;;;;36.97;23.40;;;0.30;99.90;;;;;;5057983;28;20494;-68
2022/03/03 06:52:17;;;;;;;43.07;24.67;;;0.20;99.90;;;;;;5057767;28;20939;-67
2022/03/03 06:54:46;;;;;;;42.03;24.73;;;0.20;99.90;;;;;;5057444;28;20584;-68
2022/03/03 06:57:13;;;;;;;52.17;24.20;;;0.10;99.90;;;;;;5057102;28;20896;-67
2022/03/03 06:59:40;;;;;;;45.40;23.13;;;0.00;99.90;;;;;;5057559;28;20451;-68
2022/03/03 07:02:07;;;;;;;35.90;22.20;;;-0.10;99.90;;;;;;5057289;28;20709;-68
2022/03/03 07:04:34;;;;;;;40.37;25.40;;;-0.10;99.90;;;;;;5057290;28;20489;-68
2022/03/03 07:07:01;;;;;;;38.53;23.80;;;-0.10;99.90;;;;;;5057241;28;20769;-68
2022/03/03 07:09:33;;;;;;;41.50;23.63;;;-0.10;99.90;;;;;;5057566;28;21009;-69
2022/03/03 07:12:01;;;;;;;37.73;23.43;;;-0.20;99.90;;;;;;5057275;28;20444;-68
2022/03/03 07:14:29;;;;;;;40.70;24.13;;;-0.20;99.90;;;;;;5057007;28;20463;-69
2022/03/03 07:17:00;;;;;;;44.07;24.40;;;-0.10;99.90;;;;;;5057121;28;20499;-68
2022/03/03 07:19:44;;;;;;;41.00;23.10;;;-0.10;99.90;;;;;;5057343;28;20880;-70
2022/03/03 07:22:18;;;;;;;44.40;24.80;;;0.00;99.90;;;;;;5057146;28;20478;-70
2022/03/03 07:24:46;;;;;;;44.37;25.53;;;0.00;99.90;;;;;;5056873;28;20470;-69
2022/03/03 07:27:20;;;;;;;41.30;22.20;;;0.10;99.90;;;;;;5057081;28;20455;-70
2022/03/03 07:29:51;;;;;;;41.03;22.83;;;0.10;99.90;;;;;;5056226;28;20475;-69
2022/03/03 07:32:20;;;;;;;49.40;27.17;;;0.10;99.90;;;;;;5057305;28;20526;-68
2022/03/03 07:34:57;;;;;;;46.90;25.83;;;0.10;99.90;;;;;;5059552;28;20451;-69
2022/03/03 07:37:32;;;;;;;43.60;23.67;;;0.10;99.90;;;;;;5059396;28;20926;-69
2022/03/03 07:40:04;;;;;;;44.60;25.50;;;0.00;99.90;;;;;;5057555;28;20482;-69
2022/03/03 07:42:32;;;;;;;44.23;24.27;;;-0.10;99.90;;;;;;5057009;28;20482;-70
2022/03/03 07:45:00;;;;;;;44.90;24.37;;;-0.10;99.90;;;;;;5056711;28;20918;-70
2022/03/03 07:47:27;;;;;;;47.73;25.13;;;0.00;99.90;;;;;;5056359;28;20645;-70
2022/03/03 07:49:56;;;;;;;47.50;23.67;;;0.10;99.90;;;;;;5056404;28;20910;-69
2022/03/03 07:52:24;;;;;;;45.73;23.60;;;0.20;99.90;;;;;;5056898;28;20451;-70
2022/03/03 07:54:50;;;;;;;43.47;23.30;;;0.20;99.90;;;;;;5057489;28;20714;-70
2022/03/03 07:57:18;;;;;;;45.40;24.60;;;0.20;99.90;;;;;;5057970;28;20455;-68
2022/03/03 07:59:53;;;;;;;41.30;22.80;;;0.20;99.90;;;;;;5058025;28;20513;-69
2022/03/03 08:02:22;;;;;;;43.93;24.20;;;0.20;99.90;;;;;;5061843;28;20500;-70
2022/03/03 08:04:50;;;;;;;43.80;23.03;;;0.20;99.90;;;;;;5059690;28;20470;-70
2022/03/03 08:07:20;;;;;;;41.97;22.60;;;0.20;99.90;;;;;;5059481;28;20486;-69
2022/03/03 08:09:48;;;;;;;43.63;23.33;;;0.20;99.90;;;;;;5059153;28;20486;-69
2022/03/03 08:12:17;;;;;;;43.27;23.43;;;0.20;99.90;;;;;;5059719;28;20459;-70
2022/03/03 08:14:44;;;;;;;43.70;22.80;;;0.30;99.90;;;;;;5058367;28;20853;-69
2022/03/03 08:17:15;;;;;;;52.00;25.20;;;0.30;99.90;;;;;;5056429;28;20474;-69
2022/03/03 08:19:44;;;;;;;47.77;23.27;;;0.30;99.90;;;;;;5056146;28;20465;-69
2022/03/03 08:22:13;;;;;;;43.80;24.13;;;0.40;99.90;;;;;;5056021;28;20459;-70
2022/03/03 08:24:43;;;;;;;44.57;23.20;;;0.40;99.90;;;;;;5056061;28;20520;-69
2022/03/03 08:27:11;;;;;;;44.00;24.60;;;0.40;99.90;;;;;;5056197;28;20492;-69
2022/03/03 08:29:38;;;;;;;43.87;23.17;;;0.40;99.90;;;;;;5056151;28;21015;-68
2022/03/03 08:32:11;;;;;;;42.47;23.87;;;0.40;99.90;;;;;;5056265;28;20541;-69
2022/03/03 08:34:48;;;;;;;50.13;24.07;;;0.50;99.90;;;;;;5055882;28;20746;-70
2022/03/03 08:37:19;;;;;;;48.27;23.43;;;0.50;99.90;;;;;;5055754;28;20504;-70
2022/03/03 08:39:51;;;;;;;47.97;23.60;;;0.50;99.90;;;;;;5055234;28;20435;-69
2022/03/03 08:42:37;;;;;;;40.93;22.50;;;0.50;99.90;;;;;;5057966;28;20976;-70
2022/03/03 08:45:08;;;;;;;51.13;26.63;;;0.60;99.90;;;;;;5054937;28;20442;-69
2022/03/03 08:47:36;;;;;;;41.33;23.47;;;0.60;99.90;;;;;;5054938;28;20501;-70
2022/03/03 08:50:08;;;;;;;39.20;22.20;;;0.70;99.90;;;;;;5055015;28;20490;-70
2022/03/03 08:52:38;;;;;;;41.80;23.97;;;0.70;99.90;;;;;;5056090;28;20440;-69
2022/03/03 08:55:06;;;;;;;44.73;22.40;;;0.80;99.90;;;;;;5055733;28;20447;-70
2022/03/03 08:57:32;;;;;;;45.93;25.20;;;0.90;99.90;;;;;;5056031;28;21044;-69
2022/03/03 08:59:59;;;;;;;43.47;24.37;;;0.90;99.90;;;;;;5055744;28;20466;-69
2022/03/03 09:02:26;;;;;;;44.07;23.73;;;1.00;99.90;;;;;;5056025;28;20466;-70
2022/03/03 09:04:52;;;;;;;39.10;21.90;;;1.10;99.90;;;;;;5055537;28;20488;-70
2022/03/03 09:07:22;;;;;;;40.50;22.17;;;1.10;99.90;;;;;;5055155;28;20472;-70
2022/03/03 09:09:49;;;;;;;34.47;19.17;;;1.20;99.90;;;;;;5055366;28;20479;-70
2022/03/03 09:12:16;;;;;;;36.53;20.77;;;1.30;99.90;;;;;;5055023;28;20470;-71
2022/03/03 09:14:42;;;;;;;32.90;19.40;;;1.30;99.90;;;;;;5055019;28;20847;-69
2022/03/03 09:17:09;;;;;;;31.80;17.10;;;1.50;99.90;;;;;;5055264;28;20529;-69
2022/03/03 09:19:36;;;;;;;30.90;17.67;;;1.50;99.90;;;;;;5054961;28;20447;-70
2022/03/03 09:22:03;;;;;;;28.83;17.27;;;1.60;99.90;;;;;;5054769;28;20467;-70
2022/03/03 09:24:32;;;;;;;29.37;17.07;;;1.70;99.90;;;;;;5054996;28;20458;-69
2022/03/03 09:26:58;;;;;;;30.97;18.80;;;1.70;99.90;;;;;;5055172;28;20467;-69
2022/03/03 09:29:26;;;;;;;27.30;16.63;;;1.80;99.90;;;;;;5054749;28;20479;-68
2022/03/03 09:31:53;;;;;;;33.00;19.17;;;1.80;99.90;;;;;;5054725;28;20463;-69
2022/03/03 09:34:19;;;;;;;30.60;16.13;;;1.80;99.90;;;;;;5054711;28;20447;-70
2022/03/03 09:36:46;;;;;;;29.87;17.60;;;1.70;99.90;;;;;;5055098;28;20764;-69
2022/03/03 09:39:13;;;;;;;33.47;18.00;;;1.70;99.90;;;;;;5055230;28;20474;-70
2022/03/03 09:41:41;;;;;;;31.07;17.60;;;1.70;99.90;;;;;;5055027;28;20483;-69
2022/03/03 09:44:07;;;;;;;28.80;17.60;;;1.70;99.90;;;;;;5054995;28;20494;-69
2022/03/03 09:46:36;;;;;;;32.63;18.50;;;1.70;99.90;;;;;;5054671;28;20838;-70
2022/03/03 09:49:04;;;;;;;31.67;15.43;;;1.70;99.90;;;;;;5054653;28;20540;-69
2022/03/03 09:51:30;;;;;;;27.80;16.67;;;1.80;99.90;;;;;;5056806;28;20490;-69
2022/03/03 09:53:57;;;;;;;32.00;17.30;;;1.90;99.90;;;;;;5061309;28;20459;-69
2022/03/03 09:56:24;;;;;;;24.47;14.67;;;2.00;99.90;;;;;;5061179;28;20463;-69
2022/03/03 09:58:52;;;;;;;26.73;13.93;;;2.10;99.90;;;;;;5062249;28;20469;-69
2022/03/03 10:01:19;;;;;;;27.90;15.50;;;2.10;99.90;;;;;;5062007;28;20455;-69
2022/03/03 10:03:47;;;;;;;32.83;16.43;;;2.10;99.90;;;;;;5061463;28;20465;-70
2022/03/03 10:06:14;;;;;;;22.50;12.73;;;2.20;99.90;;;;;;5061361;28;20469;-70
2022/03/03 10:08:41;;;;;;;31.43;14.00;;;2.20;99.90;;;;;;5061552;28;20478;-69
2022/03/03 10:11:09;;;;;;;23.70;12.67;;;2.30;99.90;;;;;;5061200;28;20826;-70
2022/03/03 10:13:46;;;;;;;20.40;10.90;;;2.30;99.90;;;;;;5061093;28;20765;-70
2022/03/03 10:16:20;;;;;;;19.30;11.30;;;2.40;99.90;;;;;;5061153;28;20769;-70
2022/03/03 10:18:53;;;;;;;22.83;12.50;;;2.50;99.90;;;;;;5060832;28;20435;-69
2022/03/03 10:21:20;;;;;;;22.17;12.13;;;2.60;99.90;;;;;;5060547;28;20479;-69
2022/03/03 10:23:48;;;;;;;19.97;10.87;;;2.70;99.90;;;;;;5061482;28;20465;-69
2022/03/03 10:26:15;;;;;;;38.10;20.07;;;2.70;99.90;;;;;;5061100;28;20469;-70
2022/03/03 10:28:49;;;;;;;23.87;12.00;;;2.70;99.90;;;;;;5060892;28;20501;-70
2022/03/03 10:31:20;;;;;;;19.50;11.37;;;2.70;99.90;;;;;;5061122;28;20471;-69
2022/03/03 10:33:49;;;;;;;23.33;10.70;;;2.70;99.90;;;;;;5061379;28;20508;-69
2022/03/03 10:36:18;;;;;;;18.57;10.43;;;2.70;99.90;;;;;;5061401;28;20455;-69
2022/03/03 10:38:56;;;;;;;19.30;11.33;;;2.80;99.90;;;;;;5062467;28;20451;-70
2022/03/03 10:41:35;;;;;;;22.57;11.73;;;2.90;99.90;;;;;;5062499;28;20490;-70
2022/03/03 10:44:04;;;;;;;19.67;11.20;;;3.00;99.90;;;;;;5061421;28;20443;-69
2022/03/03 10:46:33;;;;;;;19.20;10.70;;;3.10;99.90;;;;;;5060713;28;20911;-69
2022/03/03 10:49:16;;;;;;;18.00;9.97;;;3.10;99.90;;;;;;5060842;28;20474;-69
2022/03/03 10:51:43;;;;;;;22.43;12.07;;;3.00;99.90;;;;;;5060536;28;20497;-69
2022/03/03 10:54:10;;;;;;;24.73;14.53;;;2.90;99.90;;;;;;5060623;28;20454;-70
2022/03/03 10:56:44;;;;;;;19.20;10.60;;;2.90;99.90;;;;;;5061240;28;20501;-68
2022/03/03 10:59:17;;;;;;;18.17;9.53;;;2.80;99.90;;;;;;5060318;28;20438;-70
2022/03/03 11:01:46;;;;;;;19.30;10.20;;;2.70;99.90;;;;;;5060622;28;20454;-68
2022/03/03 11:04:18;;;;;;;19.77;11.47;;;2.70;99.90;;;;;;5056499;28;20454;-69
2022/03/03 11:06:48;;;;;;;19.73;12.17;;;2.70;99.90;;;;;;5057886;28;20493;-69
2022/03/03 11:09:16;;;;;;;21.93;11.33;;;2.70;99.90;;;;;;5057632;28;20459;-70
2022/03/03 11:11:45;;;;;;;15.87;9.87;;;2.80;99.90;;;;;;5057156;28;20451;-69
2022/03/03 11:14:12;;;;;;;20.87;11.10;;;2.80;99.90;;;;;;5057463;28;20451;-69
2022/03/03 11:16:41;;;;;;;21.03;11.47;;;2.80;99.90;;;;;;5057030;28;20834;-70
2022/03/03 11:19:10;;;;;;;18.20;10.87;;;2.80;99.90;;;;;;5056888;28;20537;-69
2022/03/03 11:21:37;;;;;;;17.03;9.70;;;2.80;99.90;;;;;;5060015;28;20589;-69
2022/03/03 11:24:05;;;;;;;19.93;11.40;;;2.90;99.90;;;;;;5061208;28;20749;-70
2022/03/03 11:26:35;;;;;;;15.20;9.10;;;3.00;99.90;;;;;;5060238;28;20466;-69
2022/03/03 11:29:10;;;;;;;14.57;9.33;;;3.10;99.90;;;;;;5060112;28;20464;-69
2022/03/03 11:31:37;;;;;;;16.40;9.70;;;3.10;99.90;;;;;;5059394;28;20443;-69
2022/03/03 11:34:43;;;;;;;19.10;10.60;;;3.10;99.90;;;;;;5058367;28;20463;-69
2022/03/03 11:37:17;;;;;;;22.13;9.97;;;3.10;99.90;;;;;;4996673;28;20512;-71
2022/03/03 11:39:46;;;;;;;21.33;10.30;;;3.00;99.90;;;;;;5050052;28;20483;-70
2022/03/03 11:42:22;;;;;;;34.93;20.03;;;3.00;99.90;;;;;;5056455;28;20494;-68
2022/03/03 11:44:49;;;;;;;17.80;10.27;;;3.00;99.90;;;;;;5056448;28;20439;-71
2022/03/03 11:47:22;;;;;;;17.43;10.57;;;2.90;99.90;;;;;;5056683;28;20447;-67
2022/03/03 11:50:19;;;;;;;17.67;10.10;;;2.90;99.90;;;;;;5056727;28;20772;-68
2022/03/03 11:52:52;;;;;;;22.63;13.50;;;2.90;99.90;;;;;;5044755;28;20825;-68
2022/03/03 11:55:34;;;;;;;19.07;10.47;;;2.90;99.90;;;;;;5057011;28;20439;-67
2022/03/03 11:58:05;;;;;;;23.50;12.90;;;2.90;99.90;;;;;;5056613;28;20450;-68
2022/03/03 12:00:33;;;;;;;19.73;11.30;;;3.00;99.90;;;;;;5056213;28;20447;-70
2022/03/03 12:03:03;;;;;;;18.40;9.50;;;3.00;99.90;;;;;;5056159;28;20466;-71
2022/03/03 12:05:36;;;;;;;16.77;9.43;;;3.10;99.90;;;;;;5056480;28;20454;-70
2022/03/03 12:08:06;;;;;;;17.63;9.60;;;3.20;99.90;;;;;;5056070;28;20451;-70
2022/03/03 12:10:34;;;;;;;17.37;9.20;;;3.20;99.90;;;;;;5056287;28;20552;-71
2022/03/03 12:13:25;;;;;;;17.33;10.43;;;3.30;99.90;;;;;;5055794;28;20790;-70
2022/03/03 12:16:18;;;;;;;32.27;18.30;;;3.30;99.90;;;;;;5056849;28;20436;-69
2022/03/03 12:18:46;;;;;;;19.10;11.70;;;3.40;99.90;;;;;;5057444;28;20509;-70
2022/03/03 12:21:32;;;;;;;22.43;13.33;;;3.50;99.90;;;;;;5056008;28;20474;-70
2022/03/03 12:24:22;;;;;;;18.50;10.90;;;3.60;99.90;;;;;;5055964;28;20509;-73
2022/03/03 12:27:05;;;;;;;19.13;9.90;;;3.60;99.90;;;;;;5056194;28;20903;-70
2022/03/03 12:29:34;;;;;;;17.90;9.87;;;3.70;99.90;;;;;;5057701;28;20459;-72
2022/03/03 12:32:38;;;;;;;12.93;9.37;;;3.80;99.90;;;;;;5056388;28;20462;-70
2022/03/03 12:35:09;;;;;;;22.53;9.30;;;3.90;99.90;;;;;;5056536;28;20455;-71
2022/03/03 12:37:44;;;;;;;18.10;9.93;;;3.90;99.90;;;;;;5056427;28;20509;-69
2022/03/03 12:40:12;;;;;;;18.90;9.03;;;4.00;99.90;;;;;;5056475;28;20486;-73
2022/03/03 12:42:43;;;;;;;16.03;10.00;;;4.00;99.90;;;;;;5055917;28;20483;-69
2022/03/03 12:45:13;;;;;;;15.53;8.33;;;3.90;99.90;;;;;;5056888;28;20443;-70
2022/03/03 12:47:42;;;;;;;16.33;9.23;;;3.90;99.90;;;;;;5058404;28;20455;-69